sensor_id;sensor_type;location;lat;lon;timestamp;temperature;humidity
29575;DHT22;16507;51.046;6.406;2023-05-19T00:02:14;9.50;99.90
29575;DHT22;16507;51.046;6.406;2023-05-19T00:04:40;9.50;99.90
29575;DHT22;16507;51.046;6.406;2023-05-19T00:07:09;9.40;99.90
29575;DHT22;16507;51.046;6.406;2023-05-19T00:09:36;9.40;99.90
29575;DHT22;16507;51.046;6.406;2023-05-19T00:12:02;9.40;99.90
29575;DHT22;16507;51.046;6.406;2023-05-19T00:14:28;9.30;99.90
29575;DHT22;16507;51.046;6.406;2023-05-19T00:16:54;9.30;99.90
29575;DHT22;16507;51.046;6.406;2023-05-19T00:19:20;9.30;99.90
29575;DHT22;16507;51.046;6.406;2023-05-19T00:21:46;9.20;99.90
29575;DHT22;16507;51.046;6.406;2023-05-19T00:24:12;9.20;99.90
29575;DHT22;16507;51.046;6.406;2023-05-19T00:26:37;9.20;99.90
29575;DHT22;16507;51.046;6.406;2023-05-19T00:29:04;9.20;99.90
29575;DHT22;16507;51.046;6.406;2023-05-19T00:31:30;9.00;99.90
29575;DHT22;16507;51.046;6.406;2023-05-19T00:33:56;8.90;99.90
29575;DHT22;16507;51.046;6.406;2023-05-19T00:36:21;8.90;99.90
29575;DHT22;16507;51.046;6.406;2023-05-19T00:38:47;8.90;99.90
29575;DHT22;16507;51.046;6.406;2023-05-19T00:41:13;8.90;99.90
29575;DHT22;16507;51.046;6.406;2023-05-19T00:43:38;8.80;99.90
29575;DHT22;16507;51.046;6.406;2023-05-19T00:46:05;8.80;99.90
29575;DHT22;16507;51.046;6.406;2023-05-19T00:48:31;8.80;99.90
29575;DHT22;16507;51.046;6.406;2023-05-19T00:50:58;8.70;99.90
29575;DHT22;16507;51.046;6.406;2023-05-19T00:53:29;8.60;99.90
29575;DHT22;16507;51.046;6.406;2023-05-19T00:55:56;8.70;99.90
29575;DHT22;16507;51.046;6.406;2023-05-19T00:58:22;8.70;99.90
29575;DHT22;16507;51.046;6.406;2023-05-19T01:00:49;8.70;99.90
29575;DHT22;16507;51.046;6.406;2023-05-19T01:03:15;8.70;99.90
29575;DHT22;16507;51.046;6.406;2023-05-19T01:05:45;8.70;99.90
29575;DHT22;16507;51.046;6.406;2023-05-19T01:08:12;8.70;99.90
29575;DHT22;16507;51.046;6.406;2023-05-19T01:10:37;8.60;99.90
29575;DHT22;16507;51.046;6.406;2023-05-19T01:13:04;8.70;99.90
29575;DHT22;16507;51.046;6.406;2023-05-19T01:15:35;8.60;99.90
29575;DHT22;16507;51.046;6.406;2023-05-19T01:18:13;8.60;99.90
29575;DHT22;16507;51.046;6.406;2023-05-19T01:20:45;8.50;99.90
29575;DHT22;16507;51.046;6.406;2023-05-19T01:31:13;8.40;99.90
29575;DHT22;16507;51.046;6.406;2023-05-19T01:33:40;8.20;99.90
29575;DHT22;16507;51.046;6.406;2023-05-19T01:36:08;8.20;99.90
29575;DHT22;16507;51.046;6.406;2023-05-19T01:38:37;8.20;99.90
29575;DHT22;16507;51.046;6.406;2023-05-19T01:41:05;8.20;99.90
29575;DHT22;16507;51.046;6.406;2023-05-19T01:43:31;8.10;99.90
29575;DHT22;16507;51.046;6.406;2023-05-19T01:45:57;8.10;99.90
29575;DHT22;16507;51.046;6.406;2023-05-19T01:48:24;8.00;99.90
29575;DHT22;16507;51.046;6.406;2023-05-19T01:50:50;8.00;99.90
29575;DHT22;16507;51.046;6.406;2023-05-19T01:53:15;8.10;99.90
29575;DHT22;16507;51.046;6.406;2023-05-19T01:55:47;8.00;99.90
29575;DHT22;16507;51.046;6.406;2023-05-19T01:58:45;8.00;99.90
29575;DHT22;16507;51.046;6.406;2023-05-19T02:01:50;8.00;99.90
29575;DHT22;16507;51.046;6.406;2023-05-19T02:04:35;8.00;99.90
29575;DHT22;16507;51.046;6.406;2023-05-19T02:07:14;8.00;99.90
29575;DHT22;16507;51.046;6.406;2023-05-19T02:09:56;7.90;99.90
29575;DHT22;16507;51.046;6.406;2023-05-19T02:12:37;7.80;99.90
29575;DHT22;16507;51.046;6.406;2023-05-19T02:15:15;7.70;99.90
29575;DHT22;16507;51.046;6.406;2023-05-19T02:17:43;7.60;99.90
29575;DHT22;16507;51.046;6.406;2023-05-19T02:20:15;7.50;99.90
29575;DHT22;16507;51.046;6.406;2023-05-19T02:22:41;7.30;99.90
29575;DHT22;16507;51.046;6.406;2023-05-19T02:25:07;7.20;99.90
29575;DHT22;16507;51.046;6.406;2023-05-19T02:27:34;7.10;99.90
29575;DHT22;16507;51.046;6.406;2023-05-19T02:30:01;7.00;99.90
29575;DHT22;16507;51.046;6.406;2023-05-19T02:32:26;6.90;99.90
29575;DHT22;16507;51.046;6.406;2023-05-19T02:34:52;6.80;99.90
29575;DHT22;16507;51.046;6.406;2023-05-19T02:37:17;6.60;99.90
29575;DHT22;16507;51.046;6.406;2023-05-19T02:39:43;6.60;99.90
29575;DHT22;16507;51.046;6.406;2023-05-19T02:42:09;6.50;99.90
29575;DHT22;16507;51.046;6.406;2023-05-19T02:44:35;6.40;99.90
29575;DHT22;16507;51.046;6.406;2023-05-19T02:47:00;6.30;99.90
29575;DHT22;16507;51.046;6.406;2023-05-19T02:49:26;6.30;99.90
29575;DHT22;16507;51.046;6.406;2023-05-19T02:51:55;6.30;99.90
29575;DHT22;16507;51.046;6.406;2023-05-19T02:54:21;6.30;99.90
29575;DHT22;16507;51.046;6.406;2023-05-19T02:56:46;6.40;99.90
29575;DHT22;16507;51.046;6.406;2023-05-19T02:59:12;6.40;99.90
29575;DHT22;16507;51.046;6.406;2023-05-19T03:01:38;6.40;99.90
29575;DHT22;16507;51.046;6.406;2023-05-19T03:04:04;6.40;99.90
29575;DHT22;16507;51.046;6.406;2023-05-19T03:06:30;6.50;99.90
29575;DHT22;16507;51.046;6.406;2023-05-19T03:08:57;6.50;99.90
29575;DHT22;16507;51.046;6.406;2023-05-19T03:11:22;6.60;99.90
29575;DHT22;16507;51.046;6.406;2023-05-19T03:13:48;6.50;99.90
29575;DHT22;16507;51.046;6.406;2023-05-19T03:16:13;6.40;99.90
29575;DHT22;16507;51.046;6.406;2023-05-19T03:18:40;6.40;99.90
29575;DHT22;16507;51.046;6.406;2023-05-19T03:21:06;6.40;99.90
29575;DHT22;16507;51.046;6.406;2023-05-19T03:23:31;6.30;99.90
29575;DHT22;16507;51.046;6.406;2023-05-19T03:25:57;6.30;99.90
29575;DHT22;16507;51.046;6.406;2023-05-19T03:28:22;6.20;99.90
29575;DHT22;16507;51.046;6.406;2023-05-19T03:30:48;6.30;99.90
29575;DHT22;16507;51.046;6.406;2023-05-19T03:33:17;6.40;99.90
29575;DHT22;16507;51.046;6.406;2023-05-19T03:35:42;6.50;99.90
29575;DHT22;16507;51.046;6.406;2023-05-19T03:38:11;6.50;99.90
29575;DHT22;16507;51.046;6.406;2023-05-19T03:40:36;6.60;99.90
29575;DHT22;16507;51.046;6.406;2023-05-19T03:43:02;6.60;99.90
29575;DHT22;16507;51.046;6.406;2023-05-19T03:45:27;6.60;99.90
29575;DHT22;16507;51.046;6.406;2023-05-19T03:47:53;6.50;99.90
29575;DHT22;16507;51.046;6.406;2023-05-19T03:50:19;6.60;99.90
29575;DHT22;16507;51.046;6.406;2023-05-19T03:52:45;6.60;99.90
29575;DHT22;16507;51.046;6.406;2023-05-19T03:55:12;6.50;99.90
29575;DHT22;16507;51.046;6.406;2023-05-19T03:57:41;6.50;99.90
29575;DHT22;16507;51.046;6.406;2023-05-19T04:00:08;6.50;99.90
29575;DHT22;16507;51.046;6.406;2023-05-19T04:02:35;6.60;99.90
29575;DHT22;16507;51.046;6.406;2023-05-19T04:05:01;6.70;99.90
29575;DHT22;16507;51.046;6.406;2023-05-19T04:07:29;6.70;99.90
29575;DHT22;16507;51.046;6.406;2023-05-19T04:09:55;6.70;99.90
29575;DHT22;16507;51.046;6.406;2023-05-19T04:12:21;6.80;99.90
29575;DHT22;16507;51.046;6.406;2023-05-19T04:14:47;6.90;99.90
29575;DHT22;16507;51.046;6.406;2023-05-19T04:17:12;6.90;99.90
29575;DHT22;16507;51.046;6.406;2023-05-19T04:19:38;6.90;99.90
29575;DHT22;16507;51.046;6.406;2023-05-19T04:22:04;6.90;99.90
29575;DHT22;16507;51.046;6.406;2023-05-19T04:24:30;7.00;99.90
29575;DHT22;16507;51.046;6.406;2023-05-19T04:26:56;7.00;99.90
29575;DHT22;16507;51.046;6.406;2023-05-19T04:29:27;7.10;99.90
29575;DHT22;16507;51.046;6.406;2023-05-19T04:31:54;7.20;99.90
29575;DHT22;16507;51.046;6.406;2023-05-19T04:34:19;7.30;99.90
29575;DHT22;16507;51.046;6.406;2023-05-19T04:36:45;7.30;99.90
29575;DHT22;16507;51.046;6.406;2023-05-19T04:39:11;7.50;99.90
29575;DHT22;16507;51.046;6.406;2023-05-19T04:41:36;7.50;99.90
29575;DHT22;16507;51.046;6.406;2023-05-19T04:44:05;7.60;99.90
29575;DHT22;16507;51.046;6.406;2023-05-19T04:46:33;7.70;99.90
29575;DHT22;16507;51.046;6.406;2023-05-19T04:48:58;8.20;99.90
29575;DHT22;16507;51.046;6.406;2023-05-19T04:51:26;8.20;99.90
29575;DHT22;16507;51.046;6.406;2023-05-19T04:53:53;8.20;99.90
29575;DHT22;16507;51.046;6.406;2023-05-19T04:56:19;8.20;99.90
29575;DHT22;16507;51.046;6.406;2023-05-19T04:58:45;8.30;99.90
29575;DHT22;16507;51.046;6.406;2023-05-19T05:01:10;8.30;99.90
29575;DHT22;16507;51.046;6.406;2023-05-19T05:03:38;8.50;99.90
29575;DHT22;16507;51.046;6.406;2023-05-19T05:06:03;8.60;99.90
29575;DHT22;16507;51.046;6.406;2023-05-19T05:08:29;8.70;99.90
29575;DHT22;16507;51.046;6.406;2023-05-19T05:10:55;8.70;99.90
29575;DHT22;16507;51.046;6.406;2023-05-19T05:13:22;8.80;99.90
29575;DHT22;16507;51.046;6.406;2023-05-19T05:15:48;8.80;99.90
29575;DHT22;16507;51.046;6.406;2023-05-19T05:18:15;8.80;99.90
29575;DHT22;16507;51.046;6.406;2023-05-19T05:20:41;8.90;99.90
29575;DHT22;16507;51.046;6.406;2023-05-19T05:23:08;9.00;99.90
29575;DHT22;16507;51.046;6.406;2023-05-19T05:25:35;9.20;99.90
29575;DHT22;16507;51.046;6.406;2023-05-19T05:28:00;9.10;99.90
29575;DHT22;16507;51.046;6.406;2023-05-19T05:30:33;9.30;99.90
29575;DHT22;16507;51.046;6.406;2023-05-19T05:32:58;9.40;99.90
29575;DHT22;16507;51.046;6.406;2023-05-19T05:35:24;9.60;99.90
29575;DHT22;16507;51.046;6.406;2023-05-19T05:37:50;9.70;99.90
29575;DHT22;16507;51.046;6.406;2023-05-19T05:40:15;9.60;99.90
29575;DHT22;16507;51.046;6.406;2023-05-19T05:42:42;9.60;99.90
29575;DHT22;16507;51.046;6.406;2023-05-19T05:45:07;9.70;99.90
29575;DHT22;16507;51.046;6.406;2023-05-19T05:47:33;9.90;99.90
29575;DHT22;16507;51.046;6.406;2023-05-19T05:50:03;10.00;99.90
29575;DHT22;16507;51.046;6.406;2023-05-19T05:52:29;10.10;99.90
29575;DHT22;16507;51.046;6.406;2023-05-19T05:54:56;10.30;99.90
29575;DHT22;16507;51.046;6.406;2023-05-19T05:57:22;10.30;99.90
29575;DHT22;16507;51.046;6.406;2023-05-19T05:59:48;10.10;99.90
29575;DHT22;16507;51.046;6.406;2023-05-19T06:02:16;9.90;99.90
29575;DHT22;16507;51.046;6.406;2023-05-19T06:04:41;9.80;99.90
29575;DHT22;16507;51.046;6.406;2023-05-19T06:07:08;10.00;99.90
29575;DHT22;16507;51.046;6.406;2023-05-19T06:09:34;10.20;99.90
29575;DHT22;16507;51.046;6.406;2023-05-19T06:11:59;10.50;99.90
29575;DHT22;16507;51.046;6.406;2023-05-19T06:14:25;10.60;99.90
29575;DHT22;16507;51.046;6.406;2023-05-19T06:16:51;10.50;99.90
29575;DHT22;16507;51.046;6.406;2023-05-19T06:19:18;10.70;99.90
29575;DHT22;16507;51.046;6.406;2023-05-19T06:21:46;10.90;99.90
29575;DHT22;16507;51.046;6.406;2023-05-19T06:24:12;11.10;99.90
29575;DHT22;16507;51.046;6.406;2023-05-19T06:26:37;11.30;99.90
29575;DHT22;16507;51.046;6.406;2023-05-19T06:29:03;11.00;99.90
29575;DHT22;16507;51.046;6.406;2023-05-19T06:31:29;11.10;99.90
29575;DHT22;16507;51.046;6.406;2023-05-19T06:33:55;11.30;99.90
29575;DHT22;16507;51.046;6.406;2023-05-19T06:36:21;11.20;99.90
29575;DHT22;16507;51.046;6.406;2023-05-19T06:38:46;11.10;99.90
29575;DHT22;16507;51.046;6.406;2023-05-19T06:41:12;11.20;99.90
29575;DHT22;16507;51.046;6.406;2023-05-19T06:43:39;11.50;99.90
29575;DHT22;16507;51.046;6.406;2023-05-19T06:46:04;11.50;99.90
29575;DHT22;16507;51.046;6.406;2023-05-19T06:48:30;11.60;99.90
29575;DHT22;16507;51.046;6.406;2023-05-19T06:50:56;11.80;99.90
29575;DHT22;16507;51.046;6.406;2023-05-19T06:53:21;12.00;99.90
29575;DHT22;16507;51.046;6.406;2023-05-19T06:55:47;12.00;99.90
29575;DHT22;16507;51.046;6.406;2023-05-19T06:58:15;12.20;99.90
29575;DHT22;16507;51.046;6.406;2023-05-19T07:00:41;12.00;99.90
29575;DHT22;16507;51.046;6.406;2023-05-19T07:03:07;11.90;99.90
29575;DHT22;16507;51.046;6.406;2023-05-19T07:05:33;12.10;99.90
29575;DHT22;16507;51.046;6.406;2023-05-19T07:07:59;12.20;99.90
29575;DHT22;16507;51.046;6.406;2023-05-19T07:10:24;12.30;99.90
29575;DHT22;16507;51.046;6.406;2023-05-19T07:12:50;12.80;99.90
29575;DHT22;16507;51.046;6.406;2023-05-19T07:15:15;12.90;99.90
29575;DHT22;16507;51.046;6.406;2023-05-19T07:17:41;12.90;99.90
29575;DHT22;16507;51.046;6.406;2023-05-19T07:20:07;13.00;99.90
29575;DHT22;16507;51.046;6.406;2023-05-19T07:22:36;13.10;99.90
29575;DHT22;16507;51.046;6.406;2023-05-19T07:25:03;13.10;99.90
29575;DHT22;16507;51.046;6.406;2023-05-19T07:27:28;13.40;99.90
29575;DHT22;16507;51.046;6.406;2023-05-19T07:29:54;13.50;99.90
29575;DHT22;16507;51.046;6.406;2023-05-19T07:32:20;13.30;99.90
29575;DHT22;16507;51.046;6.406;2023-05-19T07:34:45;13.30;99.90
29575;DHT22;16507;51.046;6.406;2023-05-19T07:37:11;13.30;99.90
29575;DHT22;16507;51.046;6.406;2023-05-19T07:39:37;13.60;99.90
29575;DHT22;16507;51.046;6.406;2023-05-19T07:42:02;13.80;99.90
29575;DHT22;16507;51.046;6.406;2023-05-19T07:44:28;13.80;99.90
29575;DHT22;16507;51.046;6.406;2023-05-19T07:46:55;13.90;99.90
29575;DHT22;16507;51.046;6.406;2023-05-19T07:49:21;13.90;99.90
29575;DHT22;16507;51.046;6.406;2023-05-19T07:51:47;14.10;86.70
29575;DHT22;16507;51.046;6.406;2023-05-19T07:54:13;13.80;91.90
29575;DHT22;16507;51.046;6.406;2023-05-19T07:56:38;13.80;87.80
29575;DHT22;16507;51.046;6.406;2023-05-19T07:59:04;13.90;94.60
29575;DHT22;16507;51.046;6.406;2023-05-19T08:01:30;13.80;99.90
29575;DHT22;16507;51.046;6.406;2023-05-19T08:03:56;14.00;94.10
29575;DHT22;16507;51.046;6.406;2023-05-19T08:06:22;14.20;96.40
29575;DHT22;16507;51.046;6.406;2023-05-19T08:08:49;14.50;75.40
29575;DHT22;16507;51.046;6.406;2023-05-19T08:11:15;14.30;64.90
29575;DHT22;16507;51.046;6.406;2023-05-19T08:13:41;14.10;60.90
29575;DHT22;16507;51.046;6.406;2023-05-19T08:16:06;14.40;59.50
29575;DHT22;16507;51.046;6.406;2023-05-19T08:18:32;14.50;93.10
29575;DHT22;16507;51.046;6.406;2023-05-19T08:20:58;14.70;65.90
29575;DHT22;16507;51.046;6.406;2023-05-19T08:23:23;14.90;72.60
29575;DHT22;16507;51.046;6.406;2023-05-19T08:25:49;15.30;86.90
29575;DHT22;16507;51.046;6.406;2023-05-19T08:28:15;15.20;43.40
29575;DHT22;16507;51.046;6.406;2023-05-19T08:30:44;15.40;48.70
29575;DHT22;16507;51.046;6.406;2023-05-19T08:33:09;15.80;40.70
29575;DHT22;16507;51.046;6.406;2023-05-19T08:35:35;15.70;41.90
29575;DHT22;16507;51.046;6.406;2023-05-19T08:38:03;15.80;41.90
29575;DHT22;16507;51.046;6.406;2023-05-19T08:40:29;15.50;35.70
29575;DHT22;16507;51.046;6.406;2023-05-19T08:42:56;15.90;56.10
29575;DHT22;16507;51.046;6.406;2023-05-19T08:45:22;16.30;44.70
29575;DHT22;16507;51.046;6.406;2023-05-19T08:47:48;16.50;31.10
29575;DHT22;16507;51.046;6.406;2023-05-19T08:50:23;16.90;33.80
29575;DHT22;16507;51.046;6.406;2023-05-19T08:55:33;16.90;25.00
29575;DHT22;16507;51.046;6.406;2023-05-19T08:58:03;17.20;29.00
29575;DHT22;16507;51.046;6.406;2023-05-19T09:00:29;17.10;25.60
29575;DHT22;16507;51.046;6.406;2023-05-19T09:02:55;17.40;23.90
29575;DHT22;16507;51.046;6.406;2023-05-19T09:05:22;17.40;26.00
29575;DHT22;16507;51.046;6.406;2023-05-19T09:07:47;17.40;21.00
29575;DHT22;16507;51.046;6.406;2023-05-19T09:10:14;16.90;22.20
29575;DHT22;16507;51.046;6.406;2023-05-19T09:12:45;16.90;26.40
29575;DHT22;16507;51.046;6.406;2023-05-19T09:15:13;17.30;32.80
29575;DHT22;16507;51.046;6.406;2023-05-19T09:17:40;17.20;22.10
29575;DHT22;16507;51.046;6.406;2023-05-19T09:20:06;17.40;19.80
29575;DHT22;16507;51.046;6.406;2023-05-19T09:22:42;17.20;18.50
29575;DHT22;16507;51.046;6.406;2023-05-19T09:25:22;17.40;24.70
29575;DHT22;16507;51.046;6.406;2023-05-19T09:27:48;17.90;24.00
29575;DHT22;16507;51.046;6.406;2023-05-19T09:30:17;17.50;19.50
29575;DHT22;16507;51.046;6.406;2023-05-19T09:32:44;17.80;16.20
29575;DHT22;16507;51.046;6.406;2023-05-19T09:35:11;18.10;20.10
29575;DHT22;16507;51.046;6.406;2023-05-19T09:37:41;17.90;17.80
29575;DHT22;16507;51.046;6.406;2023-05-19T09:40:10;18.10;18.30
29575;DHT22;16507;51.046;6.406;2023-05-19T09:42:38;18.50;25.10
29575;DHT22;16507;51.046;6.406;2023-05-19T09:45:05;18.50;16.70
29575;DHT22;16507;51.046;6.406;2023-05-19T09:47:36;18.70;18.60
29575;DHT22;16507;51.046;6.406;2023-05-19T09:50:09;18.50;15.10
29575;DHT22;16507;51.046;6.406;2023-05-19T09:52:42;18.40;17.20
29575;DHT22;16507;51.046;6.406;2023-05-19T09:55:10;18.20;12.00
29575;DHT22;16507;51.046;6.406;2023-05-19T09:57:37;17.90;15.70
29575;DHT22;16507;51.046;6.406;2023-05-19T10:00:07;18.00;13.40
29575;DHT22;16507;51.046;6.406;2023-05-19T10:02:43;18.40;12.30
29575;DHT22;16507;51.046;6.406;2023-05-19T10:05:16;18.00;14.80
29575;DHT22;16507;51.046;6.406;2023-05-19T10:07:44;17.50;14.50
29575;DHT22;16507;51.046;6.406;2023-05-19T10:10:13;17.90;15.80
29575;DHT22;16507;51.046;6.406;2023-05-19T10:12:39;18.00;10.70
29575;DHT22;16507;51.046;6.406;2023-05-19T10:15:08;18.40;12.00
29575;DHT22;16507;51.046;6.406;2023-05-19T10:17:39;19.00;16.00
29575;DHT22;16507;51.046;6.406;2023-05-19T10:20:15;19.30;15.60
29575;DHT22;16507;51.046;6.406;2023-05-19T10:22:43;19.50;14.70
29575;DHT22;16507;51.046;6.406;2023-05-19T10:25:09;18.70;6.90
29575;DHT22;16507;51.046;6.406;2023-05-19T10:27:41;18.80;12.80
29575;DHT22;16507;51.046;6.406;2023-05-19T10:30:19;19.30;13.10
29575;DHT22;16507;51.046;6.406;2023-05-19T10:32:49;19.80;6.10
29575;DHT22;16507;51.046;6.406;2023-05-19T10:35:32;20.20;2.70
29575;DHT22;16507;51.046;6.406;2023-05-19T10:40:52;19.60;8.80
29575;DHT22;16507;51.046;6.406;2023-05-19T10:46:06;19.00;6.50
29575;DHT22;16507;51.046;6.406;2023-05-19T10:48:33;19.00;1.50
29575;DHT22;16507;51.046;6.406;2023-05-19T10:51:02;18.80;1.00
29575;DHT22;16507;51.046;6.406;2023-05-19T10:53:31;18.50;6.10
29575;DHT22;16507;51.046;6.406;2023-05-19T10:55:57;17.80;5.40
29575;DHT22;16507;51.046;6.406;2023-05-19T11:01:15;18.50;2.10
29575;DHT22;16507;51.046;6.406;2023-05-19T11:03:45;18.90;1.00
29575;DHT22;16507;51.046;6.406;2023-05-19T11:08:54;19.60;1.00
29575;DHT22;16507;51.046;6.406;2023-05-19T11:11:20;19.90;4.70
29575;DHT22;16507;51.046;6.406;2023-05-19T11:13:47;20.10;1.00
29575;DHT22;16507;51.046;6.406;2023-05-19T11:16:17;20.10;1.80
29575;DHT22;16507;51.046;6.406;2023-05-19T11:18:47;20.50;1.00
29575;DHT22;16507;51.046;6.406;2023-05-19T11:21:13;20.70;1.40
29575;DHT22;16507;51.046;6.406;2023-05-19T11:23:38;19.80;1.00
29575;DHT22;16507;51.046;6.406;2023-05-19T11:26:05;20.40;2.20
29575;DHT22;16507;51.046;6.406;2023-05-19T11:28:32;20.70;1.00
29575;DHT22;16507;51.046;6.406;2023-05-19T11:30:59;21.20;1.00
29575;DHT22;16507;51.046;6.406;2023-05-19T11:33:26;20.70;1.00
29575;DHT22;16507;51.046;6.406;2023-05-19T11:35:56;20.70;1.00
29575;DHT22;16507;51.046;6.406;2023-05-19T11:38:24;20.50;1.00
29575;DHT22;16507;51.046;6.406;2023-05-19T11:40:53;20.80;1.00
29575;DHT22;16507;51.046;6.406;2023-05-19T11:43:24;20.50;1.00
29575;DHT22;16507;51.046;6.406;2023-05-19T11:45:52;20.30;1.00
29575;DHT22;16507;51.046;6.406;2023-05-19T11:48:20;20.40;1.60
29575;DHT22;16507;51.046;6.406;2023-05-19T11:50:46;19.80;1.00
29575;DHT22;16507;51.046;6.406;2023-05-19T11:53:11;20.10;1.00
29575;DHT22;16507;51.046;6.406;2023-05-19T11:55:44;19.80;1.00
29575;DHT22;16507;51.046;6.406;2023-05-19T11:58:10;19.10;1.00
29575;DHT22;16507;51.046;6.406;2023-05-19T12:00:38;19.10;1.00
29575;DHT22;16507;51.046;6.406;2023-05-19T12:03:04;18.80;1.00
29575;DHT22;16507;51.046;6.406;2023-05-19T12:05:30;18.80;1.00
29575;DHT22;16507;51.046;6.406;2023-05-19T12:07:56;19.40;1.00
29575;DHT22;16507;51.046;6.406;2023-05-19T12:10:25;19.20;1.00
29575;DHT22;16507;51.046;6.406;2023-05-19T12:12:52;19.10;1.00
29575;DHT22;16507;51.046;6.406;2023-05-19T12:15:21;19.10;1.00
29575;DHT22;16507;51.046;6.406;2023-05-19T12:17:54;19.30;1.00
29575;DHT22;16507;51.046;6.406;2023-05-19T12:20:20;19.50;1.00
29575;DHT22;16507;51.046;6.406;2023-05-19T12:22:47;19.70;1.00
29575;DHT22;16507;51.046;6.406;2023-05-19T12:25:14;20.10;1.00
29575;DHT22;16507;51.046;6.406;2023-05-19T12:27:42;20.20;1.00
29575;DHT22;16507;51.046;6.406;2023-05-19T12:30:08;20.50;1.00
29575;DHT22;16507;51.046;6.406;2023-05-19T12:32:34;21.30;1.00
29575;DHT22;16507;51.046;6.406;2023-05-19T12:35:02;20.60;1.00
29575;DHT22;16507;51.046;6.406;2023-05-19T12:37:29;19.60;1.00
29575;DHT22;16507;51.046;6.406;2023-05-19T12:39:55;19.30;1.00
29575;DHT22;16507;51.046;6.406;2023-05-19T12:42:21;20.10;1.00
29575;DHT22;16507;51.046;6.406;2023-05-19T12:44:49;20.90;1.00
29575;DHT22;16507;51.046;6.406;2023-05-19T12:47:17;21.20;1.00
29575;DHT22;16507;51.046;6.406;2023-05-19T12:52:26;20.40;1.00
29575;DHT22;16507;51.046;6.406;2023-05-19T12:55:00;19.70;1.00
29575;DHT22;16507;51.046;6.406;2023-05-19T12:57:27;20.80;1.00
29575;DHT22;16507;51.046;6.406;2023-05-19T13:00:03;22.80;1.00
29575;DHT22;16507;51.046;6.406;2023-05-19T13:02:33;23.50;1.00
29575;DHT22;16507;51.046;6.406;2023-05-19T13:04:59;23.40;1.00
29575;DHT22;16507;51.046;6.406;2023-05-19T13:07:25;24.00;1.00
29575;DHT22;16507;51.046;6.406;2023-05-19T13:09:51;24.20;1.00
29575;DHT22;16507;51.046;6.406;2023-05-19T13:12:17;23.40;1.00
29575;DHT22;16507;51.046;6.406;2023-05-19T13:14:43;22.60;1.00
29575;DHT22;16507;51.046;6.406;2023-05-19T13:17:09;22.50;1.00
29575;DHT22;16507;51.046;6.406;2023-05-19T13:19:34;22.30;1.00
29575;DHT22;16507;51.046;6.406;2023-05-19T13:22:00;21.50;1.00
29575;DHT22;16507;51.046;6.406;2023-05-19T13:24:26;21.50;1.00
29575;DHT22;16507;51.046;6.406;2023-05-19T13:26:52;21.00;1.00
29575;DHT22;16507;51.046;6.406;2023-05-19T13:29:17;21.40;1.00
29575;DHT22;16507;51.046;6.406;2023-05-19T13:31:43;21.10;1.00
29575;DHT22;16507;51.046;6.406;2023-05-19T13:34:09;20.80;1.00
29575;DHT22;16507;51.046;6.406;2023-05-19T13:36:34;20.40;1.00
29575;DHT22;16507;51.046;6.406;2023-05-19T13:39:00;19.90;1.00
29575;DHT22;16507;51.046;6.406;2023-05-19T13:41:26;19.90;1.00
29575;DHT22;16507;51.046;6.406;2023-05-19T13:43:53;20.50;1.00
29575;DHT22;16507;51.046;6.406;2023-05-19T13:46:19;21.10;1.00
29575;DHT22;16507;51.046;6.406;2023-05-19T13:48:45;20.10;1.00
29575;DHT22;16507;51.046;6.406;2023-05-19T13:51:11;19.80;1.00
29575;DHT22;16507;51.046;6.406;2023-05-19T13:53:36;20.10;1.00
29575;DHT22;16507;51.046;6.406;2023-05-19T13:56:03;20.90;1.00
29575;DHT22;16507;51.046;6.406;2023-05-19T13:58:29;20.50;1.00
29575;DHT22;16507;51.046;6.406;2023-05-19T14:00:55;20.30;1.00
29575;DHT22;16507;51.046;6.406;2023-05-19T14:03:21;20.50;1.00
29575;DHT22;16507;51.046;6.406;2023-05-19T14:05:47;20.90;1.00
29575;DHT22;16507;51.046;6.406;2023-05-19T14:08:14;21.00;1.00
29575;DHT22;16507;51.046;6.406;2023-05-19T14:10:40;20.40;1.00
29575;DHT22;16507;51.046;6.406;2023-05-19T14:13:07;20.10;1.00
29575;DHT22;16507;51.046;6.406;2023-05-19T14:15:34;20.00;1.00
29575;DHT22;16507;51.046;6.406;2023-05-19T14:18:02;20.10;1.00
29575;DHT22;16507;51.046;6.406;2023-05-19T14:20:27;20.10;1.00
29575;DHT22;16507;51.046;6.406;2023-05-19T14:22:53;20.60;1.00
29575;DHT22;16507;51.046;6.406;2023-05-19T14:25:19;20.60;1.00
29575;DHT22;16507;51.046;6.406;2023-05-19T14:27:45;19.90;1.00
29575;DHT22;16507;51.046;6.406;2023-05-19T14:30:11;20.40;1.00
29575;DHT22;16507;51.046;6.406;2023-05-19T14:32:36;20.70;1.00
29575;DHT22;16507;51.046;6.406;2023-05-19T14:35:02;20.90;1.00
29575;DHT22;16507;51.046;6.406;2023-05-19T14:37:28;20.40;1.00
29575;DHT22;16507;51.046;6.406;2023-05-19T14:39:56;20.70;1.00
29575;DHT22;16507;51.046;6.406;2023-05-19T14:42:22;20.60;1.00
29575;DHT22;16507;51.046;6.406;2023-05-19T14:44:48;20.70;1.00
29575;DHT22;16507;51.046;6.406;2023-05-19T14:47:13;20.80;1.00
29575;DHT22;16507;51.046;6.406;2023-05-19T14:49:39;21.50;1.00
29575;DHT22;16507;51.046;6.406;2023-05-19T14:52:07;21.30;1.00
29575;DHT22;16507;51.046;6.406;2023-05-19T14:54:33;20.80;1.00
29575;DHT22;16507;51.046;6.406;2023-05-19T14:56:59;21.10;1.00
29575;DHT22;16507;51.046;6.406;2023-05-19T14:59:25;20.90;1.00
29575;DHT22;16507;51.046;6.406;2023-05-19T15:01:51;21.10;1.00
29575;DHT22;16507;51.046;6.406;2023-05-19T15:04:17;21.30;1.00
29575;DHT22;16507;51.046;6.406;2023-05-19T15:06:42;21.10;1.00
29575;DHT22;16507;51.046;6.406;2023-05-19T15:09:08;20.70;1.00
29575;DHT22;16507;51.046;6.406;2023-05-19T15:11:35;20.30;1.00
29575;DHT22;16507;51.046;6.406;2023-05-19T15:14:00;20.60;1.00
29575;DHT22;16507;51.046;6.406;2023-05-19T15:16:26;20.60;1.00
29575;DHT22;16507;51.046;6.406;2023-05-19T15:18:51;20.30;1.00
29575;DHT22;16507;51.046;6.406;2023-05-19T15:21:17;19.90;1.00
29575;DHT22;16507;51.046;6.406;2023-05-19T15:23:42;20.50;1.00
29575;DHT22;16507;51.046;6.406;2023-05-19T15:26:08;20.90;1.00
29575;DHT22;16507;51.046;6.406;2023-05-19T15:28:34;20.70;1.00
29575;DHT22;16507;51.046;6.406;2023-05-19T15:30:59;20.70;1.00
29575;DHT22;16507;51.046;6.406;2023-05-19T15:33:25;20.60;1.00
29575;DHT22;16507;51.046;6.406;2023-05-19T15:35:51;20.00;1.00
29575;DHT22;16507;51.046;6.406;2023-05-19T15:38:17;20.30;1.00
29575;DHT22;16507;51.046;6.406;2023-05-19T15:40:43;20.60;1.00
29575;DHT22;16507;51.046;6.406;2023-05-19T15:43:09;20.50;1.00
29575;DHT22;16507;51.046;6.406;2023-05-19T15:45:34;20.40;1.00
29575;DHT22;16507;51.046;6.406;2023-05-19T15:48:00;20.80;1.00
29575;DHT22;16507;51.046;6.406;2023-05-19T15:50:26;21.10;1.00
29575;DHT22;16507;51.046;6.406;2023-05-19T15:52:51;21.20;1.00
29575;DHT22;16507;51.046;6.406;2023-05-19T15:55:20;21.20;1.00
29575;DHT22;16507;51.046;6.406;2023-05-19T15:57:46;20.70;1.00
29575;DHT22;16507;51.046;6.406;2023-05-19T16:00:12;20.80;1.00
29575;DHT22;16507;51.046;6.406;2023-05-19T16:02:37;20.60;1.00
29575;DHT22;16507;51.046;6.406;2023-05-19T16:05:06;20.60;1.00
29575;DHT22;16507;51.046;6.406;2023-05-19T16:07:32;20.50;1.00